Eko 2 — SY9957 — position and weather

sailwx.info

Track history (hours):
 
Tides and Currents Weather Stations Pressure Air Temp Water Temp Dewpoint Dewpoint Depression Visibility Wind Speed Wind Dir Waves Ship Positions

Eko 2

Last reported at 2017-Aug-23 04:01 UTC. Time now 2017-Aug-23 13:46 UTC.
Position N 37°03' E 025°02'.

Length 89 m; draft 4.3 m.

Type: Ship (hazmat cat A). MMSI: 240827000.

Date/timePositionNaut miles runAvg speedWind from/ knotsBaromVisibWave heightAir tempDewpointWater temp
2017-Aug-23 04:01N 37°03' E 025°02'011.3
2017-Aug-23 04:00N 37°03' E 025°02'5 9.7
2017-Aug-23 03:30N 37°06' E 025°07'1 0.1
2017-Aug-22 13:06N 37°05' E 025°09'0 0.7
2017-Aug-22 13:00N 37°05' E 025°09'0 0.4
2017-Aug-22 12:14N 37°05' E 025°08'1 6.4
2017-Aug-22 12:00N 37°06' E 025°07'510.3
2017-Aug-22 11:30N 37°10' E 025°12'612.0
2017-Aug-22 11:00N 37°11' E 025°19'612.1
2017-Aug-22 10:30N 37°13' E 025°27'10 8.9
2017-Aug-22 09:23N 37°08' E 025°38'4 9.7
2017-Aug-22 09:00N 37°04' E 025°39'  
2017-Aug-16 03:06N 36°59' E 025°17'111.6
2017-Aug-16 03:00N 37°00' E 025°17'611.3
2017-Aug-16 02:30N 37°06' E 025°19'3 5.1
2017-Aug-16 01:58N 37°06' E 025°22'0 0.0
2017-Aug-16 01:28N 37°06' E 025°22'0 0.0
2017-Aug-16 00:58N 37°06' E 025°22'0 0.0
2017-Aug-16 00:28N 37°06' E 025°22'0 0.0
2017-Aug-15 23:58N 37°06' E 025°22'0 0.0
2017-Aug-15 23:28N 37°06' E 025°22'0 0.0
2017-Aug-15 22:58N 37°06' E 025°22'0 0.0
2017-Aug-15 22:28N 37°06' E 025°22'0 0.0
2017-Aug-15 21:58N 37°06' E 025°22'0 0.0
2017-Aug-15 21:28N 37°06' E 025°22'0 1.0
2017-Aug-15 21:00N 37°06' E 025°22'0 0.1
2017-Aug-15 20:30N 37°06' E 025°22'0 0.0
2017-Aug-15 20:00N 37°06' E 025°22'0 0.0
2017-Aug-15 19:30N 37°06' E 025°22'2 3.2
2017-Aug-15 19:00N 37°07' E 025°21'510.1
2017-Aug-15 18:31N 37°11' E 025°16'510.2
2017-Aug-15 18:00N 37°12' E 025°10'510.5
2017-Aug-15 17:30N 37°14' E 025°04'510.7
2017-Aug-15 17:00N 37°16' E 024°58'510.3
2017-Aug-15 16:30N 37°18' E 024°52'5 9.3
2017-Aug-15 16:00N 37°18' E 024°46'52 9.5
2017-Aug-15 10:34N 37°37' E 023°45'110.6
2017-Aug-15 10:30N 37°38' E 023°45'510.5
2017-Aug-15 10:00N 37°42' E 023°41'611.0
2017-Aug-15 09:30N 37°47' E 023°38'511.0
2017-Aug-15 09:00N 37°52' E 023°37'510.0
2017-Aug-15 08:30N 37°57' E 023°35'4 8.9
2017-Aug-15 08:00N 38°01' E 023°32'0 0.7
2017-Aug-15 07:29N 38°01' E 023°32'0 0.0
2017-Aug-15 06:59N 38°01' E 023°32'0 0.0
2017-Aug-15 06:29N 38°01' E 023°32'0 0.0
2017-Aug-15 05:59N 38°01' E 023°32'0 0.0
2017-Aug-15 05:29N 38°01' E 023°32'0 0.0
2017-Aug-15 04:59N 38°01' E 023°32'0 0.0
2017-Aug-15 04:29N 38°01' E 023°32'0 0.1
2017-Aug-15 03:59N 38°01' E 023°32'0 0.1
2017-Aug-15 03:29N 38°01' E 023°32'0 0.0
2017-Aug-15 02:59N 38°01' E 023°32'0 0.0
2017-Aug-15 02:29N 38°01' E 023°32'0 0.0
2017-Aug-15 01:59N 38°01' E 023°32'0 0.0
2017-Aug-15 01:29N 38°01' E 023°32'0 0.0
2017-Aug-15 00:59N 38°01' E 023°32'0 0.0
2017-Aug-15 00:29N 38°01' E 023°32'0 0.0
2017-Aug-14 23:59N 38°01' E 023°32'0 0.0
2017-Aug-14 23:29N 38°01' E 023°32'0 0.5
2017-Aug-14 23:01N 38°01' E 023°32'3 5.1
2017-Aug-14 22:26N 38°02' E 023°36'0 0.0
2017-Aug-14 21:56N 38°02' E 023°36'0 0.0
2017-Aug-14 21:29N 38°02' E 023°36'0 0.0
2017-Aug-14 20:59N 38°02' E 023°36'0 0.0
2017-Aug-14 20:26N 38°02' E 023°36'0 0.0
2017-Aug-14 19:59N 38°02' E 023°36'0 0.0
2017-Aug-14 19:29N 38°02' E 023°36'0 0.0
2017-Aug-14 18:59N 38°02' E 023°36'0 0.0
2017-Aug-14 18:29N 38°02' E 023°36'0 0.0
2017-Aug-14 17:56N 38°02' E 023°36'0 0.0
2017-Aug-14 17:20N 38°02' E 023°36'0 0.0
2017-Aug-14 16:56N 38°02' E 023°36'0 0.0
2017-Aug-14 16:26N 38°02' E 023°36'0 0.0
2017-Aug-14 15:50N 38°02' E 023°36'0 0.0
2017-Aug-14 15:29N 38°02' E 023°36'0 0.0
2017-Aug-14 14:58N 38°02' E 023°36'0 0.0
2017-Aug-14 14:30N 38°02' E 023°36'1 2.0
2017-Aug-14 14:00N 38°02' E 023°34'2 3.0
2017-Aug-14 13:29N 38°02' E 023°32'0 0.0
2017-Aug-14 12:59N 38°02' E 023°32'0 0.0
2017-Aug-14 12:29N 38°02' E 023°32'0 0.0
2017-Aug-14 11:59N 38°02' E 023°32'0 0.0
2017-Aug-14 11:29N 38°02' E 023°32'0 0.0
2017-Aug-14 10:59N 38°02' E 023°32'0 0.0
2017-Aug-14 10:29N 38°02' E 023°32'0 0.0
2017-Aug-14 09:59N 38°02' E 023°32'0 0.0
2017-Aug-14 09:29N 38°02' E 023°32'0 0.0
2017-Aug-14 08:59N 38°02' E 023°32'0 0.0
2017-Aug-14 08:29N 38°02' E 023°32'0 0.0
2017-Aug-14 07:59N 38°02' E 023°32'0 0.0
2017-Aug-14 07:29N 38°02' E 023°32'0 0.0
2017-Aug-14 06:59N 38°02' E 023°32'0 0.0
2017-Aug-14 06:29N 38°02' E 023°32'0 0.0
2017-Aug-14 05:59N 38°02' E 023°32'0 0.0
2017-Aug-14 05:29N 38°02' E 023°32'0 0.0
2017-Aug-14 04:59N 38°02' E 023°32'0 0.0
2017-Aug-14 04:29N 38°02' E 023°32'0 0.0
2017-Aug-14 03:59N 38°02' E 023°32'0 0.0
2017-Aug-14 03:29N 38°02' E 023°32'0 0.0
2017-Aug-14 02:59N 38°02' E 023°32'0 0.0
2017-Aug-14 02:29N 38°02' E 023°32'0 0.0
2017-Aug-14 01:59N 38°02' E 023°32'0 0.0
2017-Aug-14 01:29N 38°02' E 023°32'0 0.0
2017-Aug-14 00:59N 38°02' E 023°32'0 0.0
2017-Aug-14 00:29N 38°02' E 023°32'0 0.0
2017-Aug-13 23:59N 38°02' E 023°32'0 0.0
2017-Aug-13 23:29N 38°02' E 023°32'0 0.0
2017-Aug-13 22:59N 38°02' E 023°32'0 0.0
2017-Aug-13 22:29N 38°02' E 023°32'0 0.0
2017-Aug-13 21:59N 38°02' E 023°32'0 0.0
2017-Aug-13 21:29N 38°02' E 023°32'0 0.0
2017-Aug-13 20:59N 38°02' E 023°32'0 0.0
2017-Aug-13 20:29N 38°02' E 023°32'0 0.0
2017-Aug-13 19:59N 38°02' E 023°32'0 0.0
2017-Aug-13 19:29N 38°02' E 023°32'0 0.0
2017-Aug-13 18:59N 38°02' E 023°32'0 0.0
2017-Aug-13 18:29N 38°02' E 023°32'0 0.0
2017-Aug-13 17:59N 38°02' E 023°32'0 0.0
2017-Aug-13 17:29N 38°02' E 023°32'0 0.0
2017-Aug-13 16:59N 38°02' E 023°32'0 0.0
2017-Aug-13 16:29N 38°02' E 023°32'0 0.0
2017-Aug-13 15:59N 38°02' E 023°32'0 0.0
2017-Aug-13 15:29N 38°02' E 023°32'0 0.0
2017-Aug-13 14:59N 38°02' E 023°32'0 0.0
2017-Aug-13 14:29N 38°02' E 023°32'0 0.0
2017-Aug-13 13:59N 38°02' E 023°32'0 0.0
2017-Aug-13 13:29N 38°02' E 023°32'0 0.0
2017-Aug-13 12:59N 38°02' E 023°32'0 0.0
2017-Aug-13 12:29N 38°02' E 023°32'0 0.0
2017-Aug-13 11:59N 38°02' E 023°32'0 0.0
2017-Aug-13 11:29N 38°02' E 023°32'0 0.0
2017-Aug-13 10:59N 38°02' E 023°32'0 0.0
2017-Aug-13 10:29N 38°02' E 023°32'0 0.0
2017-Aug-13 09:59N 38°02' E 023°32'0 0.0
2017-Aug-13 09:29N 38°02' E 023°32'0 0.0
2017-Aug-13 08:59N 38°02' E 023°32'0 0.0
2017-Aug-13 08:29N 38°02' E 023°32'0 0.0
2017-Aug-13 08:01N 38°02' E 023°32'2 3.4
2017-Aug-13 07:30N 38°02' E 023°35'0 0.4
2017-Aug-13 07:00N 38°02' E 023°35'1 1.7
2017-Aug-13 06:30N 38°01' E 023°34'4 8.0
2017-Aug-13 06:00N 37°57' E 023°34'2 3.8
2017-Aug-13 05:28N 37°55' E 023°34'0 0.1
2017-Aug-13 04:58N 37°55' E 023°34'0 0.0
2017-Aug-13 04:28N 37°55' E 023°34'  
Track history (hours):
 
Tides and Currents Weather Stations Pressure Air Temp Water Temp Dewpoint Dewpoint Depression Visibility Wind Speed Wind Dir Waves Ship Positions

Eko 2

Last reported at 2017-Aug-23 04:01 UTC. Time now 2017-Aug-23 13:46 UTC.
Position N 37°03' E 025°02'.

Length 89 m; draft 4.3 m.

Type: Ship (hazmat cat A). MMSI: 240827000.

Date/timePositionNaut miles runAvg speedWind from/ knotsBaromVisibWave heightAir tempDewpointWater temp
2017-Aug-23 04:01N 37°03' E 025°02'011.3
2017-Aug-23 04:00N 37°03' E 025°02'5 9.7
2017-Aug-23 03:30N 37°06' E 025°07'1 0.1
2017-Aug-22 13:06N 37°05' E 025°09'0 0.7
2017-Aug-22 13:00N 37°05' E 025°09'0 0.4
2017-Aug-22 12:14N 37°05' E 025°08'1 6.4
2017-Aug-22 12:00N 37°06' E 025°07'510.3
2017-Aug-22 11:30N 37°10' E 025°12'612.0
2017-Aug-22 11:00N 37°11' E 025°19'612.1
2017-Aug-22 10:30N 37°13' E 025°27'10 8.9
2017-Aug-22 09:23N 37°08' E 025°38'4 9.7
2017-Aug-22 09:00N 37°04' E 025°39'  
2017-Aug-16 03:06N 36°59' E 025°17'111.6
2017-Aug-16 03:00N 37°00' E 025°17'611.3
2017-Aug-16 02:30N 37°06' E 025°19'3 5.1
2017-Aug-16 01:58N 37°06' E 025°22'0 0.0
2017-Aug-16 01:28N 37°06' E 025°22'0 0.0
2017-Aug-16 00:58N 37°06' E 025°22'0 0.0
2017-Aug-16 00:28N 37°06' E 025°22'0 0.0
2017-Aug-15 23:58N 37°06' E 025°22'0 0.0
2017-Aug-15 23:28N 37°06' E 025°22'0 0.0
2017-Aug-15 22:58N 37°06' E 025°22'0 0.0
2017-Aug-15 22:28N 37°06' E 025°22'0 0.0
2017-Aug-15 21:58N 37°06' E 025°22'0 0.0
2017-Aug-15 21:28N 37°06' E 025°22'0 1.0
2017-Aug-15 21:00N 37°06' E 025°22'0 0.1
2017-Aug-15 20:30N 37°06' E 025°22'0 0.0
2017-Aug-15 20:00N 37°06' E 025°22'0 0.0
2017-Aug-15 19:30N 37°06' E 025°22'2 3.2
2017-Aug-15 19:00N 37°07' E 025°21'510.1
2017-Aug-15 18:31N 37°11' E 025°16'510.2
2017-Aug-15 18:00N 37°12' E 025°10'510.5
2017-Aug-15 17:30N 37°14' E 025°04'510.7
2017-Aug-15 17:00N 37°16' E 024°58'510.3
2017-Aug-15 16:30N 37°18' E 024°52'5 9.3
2017-Aug-15 16:00N 37°18' E 024°46'52 9.5
2017-Aug-15 10:34N 37°37' E 023°45'110.6
2017-Aug-15 10:30N 37°38' E 023°45'510.5
2017-Aug-15 10:00N 37°42' E 023°41'611.0
2017-Aug-15 09:30N 37°47' E 023°38'511.0
2017-Aug-15 09:00N 37°52' E 023°37'510.0
2017-Aug-15 08:30N 37°57' E 023°35'4 8.9
2017-Aug-15 08:00N 38°01' E 023°32'0 0.7
2017-Aug-15 07:29N 38°01' E 023°32'0 0.0
2017-Aug-15 06:59N 38°01' E 023°32'0 0.0
2017-Aug-15 06:29N 38°01' E 023°32'0 0.0
2017-Aug-15 05:59N 38°01' E 023°32'0 0.0
2017-Aug-15 05:29N 38°01' E 023°32'0 0.0
2017-Aug-15 04:59N 38°01' E 023°32'0 0.0
2017-Aug-15 04:29N 38°01' E 023°32'0 0.1
2017-Aug-15 03:59N 38°01' E 023°32'0 0.1
2017-Aug-15 03:29N 38°01' E 023°32'0 0.0
2017-Aug-15 02:59N 38°01' E 023°32'0 0.0
2017-Aug-15 02:29N 38°01' E 023°32'0 0.0
2017-Aug-15 01:59N 38°01' E 023°32'0 0.0
2017-Aug-15 01:29N 38°01' E 023°32'0 0.0
2017-Aug-15 00:59N 38°01' E 023°32'0 0.0
2017-Aug-15 00:29N 38°01' E 023°32'0 0.0
2017-Aug-14 23:59N 38°01' E 023°32'0 0.0
2017-Aug-14 23:29N 38°01' E 023°32'0 0.5
2017-Aug-14 23:01N 38°01' E 023°32'3 5.1
2017-Aug-14 22:26N 38°02' E 023°36'0 0.0
2017-Aug-14 21:56N 38°02' E 023°36'0 0.0
2017-Aug-14 21:29N 38°02' E 023°36'0 0.0
2017-Aug-14 20:59N 38°02' E 023°36'0 0.0
2017-Aug-14 20:26N 38°02' E 023°36'0 0.0
2017-Aug-14 19:59N 38°02' E 023°36'0 0.0
2017-Aug-14 19:29N 38°02' E 023°36'0 0.0
2017-Aug-14 18:59N 38°02' E 023°36'0 0.0
2017-Aug-14 18:29N 38°02' E 023°36'0 0.0
2017-Aug-14 17:56N 38°02' E 023°36'0 0.0
2017-Aug-14 17:20N 38°02' E 023°36'0 0.0
2017-Aug-14 16:56N 38°02' E 023°36'0 0.0
2017-Aug-14 16:26N 38°02' E 023°36'0 0.0
2017-Aug-14 15:50N 38°02' E 023°36'0 0.0
2017-Aug-14 15:29N 38°02' E 023°36'0 0.0
2017-Aug-14 14:58N 38°02' E 023°36'0 0.0
2017-Aug-14 14:30N 38°02' E 023°36'1 2.0
2017-Aug-14 14:00N 38°02' E 023°34'2 3.0
2017-Aug-14 13:29N 38°02' E 023°32'0 0.0
2017-Aug-14 12:59N 38°02' E 023°32'0 0.0
2017-Aug-14 12:29N 38°02' E 023°32'0 0.0
2017-Aug-14 11:59N 38°02' E 023°32'0 0.0
2017-Aug-14 11:29N 38°02' E 023°32'0 0.0
2017-Aug-14 10:59N 38°02' E 023°32'0 0.0
2017-Aug-14 10:29N 38°02' E 023°32'0 0.0
2017-Aug-14 09:59N 38°02' E 023°32'0 0.0
2017-Aug-14 09:29N 38°02' E 023°32'0 0.0
2017-Aug-14 08:59N 38°02' E 023°32'0 0.0
2017-Aug-14 08:29N 38°02' E 023°32'0 0.0
2017-Aug-14 07:59N 38°02' E 023°32'0 0.0
2017-Aug-14 07:29N 38°02' E 023°32'0 0.0
2017-Aug-14 06:59N 38°02' E 023°32'0 0.0
2017-Aug-14 06:29N 38°02' E 023°32'0 0.0
2017-Aug-14 05:59N 38°02' E 023°32'0 0.0
2017-Aug-14 05:29N 38°02' E 023°32'0 0.0
2017-Aug-14 04:59N 38°02' E 023°32'0 0.0
2017-Aug-14 04:29N 38°02' E 023°32'0 0.0
2017-Aug-14 03:59N 38°02' E 023°32'0 0.0
2017-Aug-14 03:29N 38°02' E 023°32'0 0.0
2017-Aug-14 02:59N 38°02' E 023°32'0 0.0
2017-Aug-14 02:29N 38°02' E 023°32'0 0.0
2017-Aug-14 01:59N 38°02' E 023°32'0 0.0
2017-Aug-14 01:29N 38°02' E 023°32'0 0.0
2017-Aug-14 00:59N 38°02' E 023°32'0 0.0
2017-Aug-14 00:29N 38°02' E 023°32'0 0.0
2017-Aug-13 23:59N 38°02' E 023°32'0 0.0
2017-Aug-13 23:29N 38°02' E 023°32'0 0.0
2017-Aug-13 22:59N 38°02' E 023°32'0 0.0
2017-Aug-13 22:29N 38°02' E 023°32'0 0.0
2017-Aug-13 21:59N 38°02' E 023°32'0 0.0
2017-Aug-13 21:29N 38°02' E 023°32'0 0.0
2017-Aug-13 20:59N 38°02' E 023°32'0 0.0
2017-Aug-13 20:29N 38°02' E 023°32'0 0.0
2017-Aug-13 19:59N 38°02' E 023°32'0 0.0
2017-Aug-13 19:29N 38°02' E 023°32'0 0.0
2017-Aug-13 18:59N 38°02' E 023°32'0 0.0
2017-Aug-13 18:29N 38°02' E 023°32'0 0.0
2017-Aug-13 17:59N 38°02' E 023°32'0 0.0
2017-Aug-13 17:29N 38°02' E 023°32'0 0.0
2017-Aug-13 16:59N 38°02' E 023°32'0 0.0
2017-Aug-13 16:29N 38°02' E 023°32'0 0.0
2017-Aug-13 15:59N 38°02' E 023°32'0 0.0
2017-Aug-13 15:29N 38°02' E 023°32'0 0.0
2017-Aug-13 14:59N 38°02' E 023°32'0 0.0
2017-Aug-13 14:29N 38°02' E 023°32'0 0.0
2017-Aug-13 13:59N 38°02' E 023°32'0 0.0
2017-Aug-13 13:29N 38°02' E 023°32'0 0.0
2017-Aug-13 12:59N 38°02' E 023°32'0 0.0
2017-Aug-13 12:29N 38°02' E 023°32'0 0.0
2017-Aug-13 11:59N 38°02' E 023°32'0 0.0
2017-Aug-13 11:29N 38°02' E 023°32'0 0.0
2017-Aug-13 10:59N 38°02' E 023°32'0 0.0
2017-Aug-13 10:29N 38°02' E 023°32'0 0.0
2017-Aug-13 09:59N 38°02' E 023°32'0 0.0
2017-Aug-13 09:29N 38°02' E 023°32'0 0.0
2017-Aug-13 08:59N 38°02' E 023°32'0 0.0
2017-Aug-13 08:29N 38°02' E 023°32'0 0.0
2017-Aug-13 08:01N 38°02' E 023°32'2 3.4
2017-Aug-13 07:30N 38°02' E 023°35'0 0.4
2017-Aug-13 07:00N 38°02' E 023°35'1 1.7
2017-Aug-13 06:30N 38°01' E 023°34'4 8.0
2017-Aug-13 06:00N 37°57' E 023°34'2 3.8
2017-Aug-13 05:28N 37°55' E 023°34'0 0.1
2017-Aug-13 04:58N 37°55' E 023°34'0 0.0
2017-Aug-13 04:28N 37°55' E 023°34'  

Dump ship's entire track history